Time;durP1;ratioP1;P1;durP2;ratioP2;P2;SDS_P1;SDS_P2;PMS_P1;PMS_P2;Temp;Humidity;BMP_temperature;BMP_pressure;BME280_temperature;BME280_humidity;BME280_pressure;Samples;Min_cycle;Max_cycle;Signal;HPM_P1;HPM_P2
2023/01/02 00:02:52;;;;;;;27.67;12.67;;;;;;;11.28;90.77;100861.45;3359332;86;99369;-88
2023/01/02 00:07:53;;;;;;;25.30;13.20;;;;;;;11.24;90.92;100861.38;3361071;86;33169;-88
2023/01/02 00:12:54;;;;;;;24.07;11.83;;;;;;;11.20;91.12;100858.36;3364582;83;99029;-89
2023/01/02 00:17:55;;;;;;;26.83;12.97;;;;;;;11.14;91.24;100873.05;3361426;86;31508;-89
2023/01/02 00:22:56;;;;;;;22.73;10.90;;;;;;;11.12;91.39;100872.60;3353553;86;99291;-89
2023/01/02 00:27:57;;;;;;;21.93;10.60;;;;;;;11.06;91.64;100871.33;3360021;86;31465;-89
2023/01/02 00:32:57;;;;;;;24.67;11.20;;;;;;;11.02;91.88;100870.47;3355685;86;99133;-89
2023/01/02 00:37:58;;;;;;;22.27;11.17;;;;;;;10.98;92.14;100869.64;3473529;84;31950;-89
2023/01/02 00:42:59;;;;;;;27.62;11.90;;;;;;;10.90;92.43;100870.67;3465765;84;99245;-89
2023/01/02 00:48:00;;;;;;;22.43;11.47;;;;;;;10.87;92.80;100865.91;3473897;84;31498;-88
2023/01/02 00:53:00;;;;;;;25.02;12.43;;;;;;;10.85;93.06;100864.09;3481236;83;99137;-90
2023/01/02 00:58:01;;;;;;;22.57;11.70;;;;;;;10.86;93.24;100866.27;3490013;83;25819;-90
2023/01/02 01:03:02;;;;;;;22.93;11.97;;;;;;;10.82;93.31;100866.79;3482925;83;99176;-89
2023/01/02 01:08:04;;;;;;;28.20;14.03;;;;;;;10.82;93.46;100864.84;3492658;82;34777;-89
2023/01/02 01:13:05;;;;;;;26.03;12.27;;;;;;;10.81;93.53;100871.52;3455804;83;99132;-89
2023/01/02 01:18:06;;;;;;;23.93;11.87;;;;;;;10.80;93.61;100868.53;3394374;86;35248;-89
2023/01/02 01:23:06;;;;;;;25.53;12.97;;;;;;;10.79;93.68;100863.41;3490090;83;98954;-89
2023/01/02 01:28:07;;;;;;;21.93;11.50;;;;;;;10.79;93.74;100872.45;3493070;83;34847;-88
2023/01/02 01:33:08;;;;;;;23.70;11.50;;;;;;;10.80;93.88;100867.75;3484650;83;98999;-89
2023/01/02 01:38:09;;;;;;;23.07;12.30;;;;;;;10.78;93.92;100863.98;3491063;83;34736;-89
2023/01/02 01:43:13;;;;;;;27.65;11.93;;;;;;;10.76;94.00;100844.29;3484922;83;99122;-89
2023/01/02 01:48:16;;;;;;;24.77;11.38;;;;;;;10.76;94.09;100818.70;3494082;83;34712;-89
2023/01/02 01:53:20;;;;;;;27.17;12.70;;;;;;;10.76;94.17;100820.89;3477975;83;99300;-89
2023/01/02 01:58:33;;;;;;;29.42;13.38;;;;;;;10.75;94.35;100807.48;3496333;83;34720;-89
2023/01/02 02:03:35;;;;;;;27.95;12.55;;;;;;;10.74;94.56;100803.15;3491716;79;97936;-89
2023/01/02 02:09:06;;;;;;;25.62;13.03;;;;;;;10.72;94.68;100794.45;3494675;83;34646;-90
2023/01/02 02:14:07;;;;;;;23.35;11.85;;;;;;;10.74;94.89;100787.41;3268404;89;99289;-89
2023/01/02 02:19:42;;;;;;;25.60;12.83;;;;;;;10.72;95.03;100781.48;3426175;83;27478;-89
2023/01/02 02:25:23;;;;;;;22.27;12.33;;;;;;;10.59;95.13;100755.91;3487674;83;98868;-90
2023/01/02 02:30:29;;;;;;;26.07;12.68;;;;;;;10.59;95.13;100755.91;3493391;83;34679;-90
2023/01/02 02:35:47;;;;;;;;;;;;;;;10.72;95.25;100761.41;3486102;83;98897;-89
2023/01/02 02:41:33;;;;;;;27.60;10.88;;;;;;;10.72;95.88;100750.40;3488238;83;34641;-90
2023/01/02 02:47:01;;;;;;;66.77;37.08;;;;;;;10.68;95.74;100751.72;3496852;83;34611;-89
2023/01/02 02:52:13;;;;;;;54.88;34.98;;;;;;;10.65;95.97;100736.53;3494692;82;99089;-89
2023/01/02 02:57:16;;;;;;;35.75;19.50;;;;;;;10.62;95.93;100728.44;3498823;79;34592;-89
2023/01/02 03:02:19;;;;;;;26.77;13.28;;;;;;;10.65;95.92;100731.03;3488308;83;99224;-89
2023/01/02 03:07:52;;;;;;;22.80;10.13;;;;;;;10.62;96.04;100733.13;3493039;83;34694;-88
2023/01/02 03:13:36;;;;;;;23.30;11.65;;;;;;;10.63;96.15;100725.89;3489627;83;98863;-89
2023/01/02 03:19:19;;;;;;;25.82;11.28;;;;;;;10.63;96.10;100713.50;3493344;83;34700;-90
2023/01/02 03:24:23;;;;;;;21.25;11.03;;;;;;;10.62;96.08;100705.03;3487737;83;99307;-89
2023/01/02 03:29:29;;;;;;;20.75;9.98;;;;;;;10.64;96.09;100701.33;3475627;83;34661;-90
2023/01/02 03:34:31;;;;;;;;;;;;;;;10.62;96.07;100688.52;3489717;83;98528;-89
2023/01/02 03:39:38;;;;;;;24.00;10.32;;;;;;;10.59;96.44;100692.03;3494461;83;34767;-89
2023/01/02 03:44:50;;;;;;;19.55;11.30;;;;;;;10.59;96.35;100678.27;3486198;83;98778;-90
2023/01/02 03:49:56;;;;;;;20.30;10.80;;;;;;;10.59;96.35;100678.27;3493789;83;34727;-89
2023/01/02 03:54:59;;;;;;;24.05;11.05;;;;;;;10.60;96.28;100688.68;3485572;83;98944;-89
2023/01/02 04:00:05;;;;;;;21.68;10.63;;;;;;;10.61;96.27;100693.82;3491096;83;34641;-89
2023/01/02 04:05:23;;;;;;;24.83;10.83;;;;;;;10.63;96.18;100683.83;3488494;82;99060;-89
2023/01/02 04:10:27;;;;;;;24.43;11.28;;;;;;;10.63;96.14;100663.18;3495065;82;35561;-89
2023/01/02 04:15:32;;;;;;;18.82;9.45;;;;;;;10.62;96.16;100649.99;3488833;83;99163;-88
2023/01/02 04:20:44;;;;;;;21.23;10.40;;;;;;;10.59;96.17;100652.12;3496171;83;35149;-89
2023/01/02 04:26:06;;;;;;;23.62;12.18;;;;;;;10.58;96.16;100636.75;3489809;83;98940;-88
2023/01/02 04:31:18;;;;;;;22.10;10.93;;;;;;;10.58;96.10;100634.60;3487843;83;98876;-90
2023/01/02 04:36:19;;;;;;;25.45;12.13;;;;;;;10.58;96.03;100627.72;3491612;83;34633;-89
2023/01/02 04:41:27;;;;;;;24.27;10.03;;;;;;;10.58;95.92;100614.73;3489908;83;98903;-90
2023/01/02 04:46:29;;;;;;;24.23;11.25;;;;;;;10.58;95.89;100609.83;3500658;80;35201;-90
2023/01/02 04:51:30;;;;;;;24.83;10.83;;;;;;;10.56;96.03;100600.56;3486697;83;98906;-92
2023/01/02 04:56:30;;;;;;;24.47;11.17;;;;;;;10.57;95.97;100606.27;3492484;83;27901;-91
2023/01/02 05:01:31;;;;;;;21.77;9.88;;;;;;;10.57;95.80;100588.98;3486587;83;99174;-90
2023/01/02 05:06:32;;;;;;;20.50;10.00;;;;;;;10.56;95.68;100595.06;3493658;83;33167;-90
2023/01/02 05:11:33;;;;;;;21.40;11.70;;;;;;;10.58;95.52;100605.70;3485382;83;99153;-90
2023/01/02 05:16:33;;;;;;;22.67;11.13;;;;;;;10.56;95.40;100591.50;3491315;82;32296;-89
2023/01/02 05:26:54;;;;;;;22.32;10.60;;;;;;;10.57;95.08;100575.23;3494280;83;34632;-90
2023/01/02 05:31:54;;;;;;;19.87;10.23;;;;;;;10.58;94.92;100583.69;3485318;83;99217;-89
2023/01/02 05:36:55;;;;;;;22.73;10.80;;;;;;;10.57;94.85;100572.47;3497557;83;27934;-90
2023/01/02 05:41:56;;;;;;;22.63;11.80;;;;;;;10.55;94.72;100563.21;3492269;82;99600;-89
2023/01/02 05:46:57;;;;;;;22.77;11.83;;;;;;;10.56;94.59;100569.48;3492879;82;33418;-88
2023/01/02 05:51:58;;;;;;;23.10;10.87;;;;;;;10.54;94.52;100558.87;3487748;83;98965;-91
2023/01/02 05:56:58;;;;;;;23.87;12.13;;;;;;;10.53;94.44;100568.87;3464783;83;32322;-90
2023/01/02 06:01:59;;;;;;;23.83;12.17;;;;;;;10.54;94.30;100570.45;3449258;84;99293;-89
2023/01/02 06:07:00;;;;;;;24.32;11.65;;;;;;;10.54;94.16;100574.02;3454046;84;32359;-89
2023/01/02 06:12:03;;;;;;;21.43;10.83;;;;;;;10.54;94.06;100574.58;3450128;84;99292;-91
2023/01/02 06:17:03;;;;;;;25.32;11.73;;;;;;;10.52;93.96;100574.17;3455559;84;32335;-90
2023/01/02 06:22:04;;;;;;;24.23;12.43;;;;;;;10.52;93.87;100561.19;3452283;84;99243;-89
2023/01/02 06:27:05;;;;;;;21.73;12.43;;;;;;;10.53;93.82;100571.63;3455883;84;26150;-89
2023/01/02 06:32:06;;;;;;;22.13;11.40;;;;;;;10.52;93.78;100574.17;3432454;82;98281;-91
2023/01/02 06:37:06;;;;;;;25.00;12.20;;;;;;;10.52;93.69;100572.20;3455014;84;25710;-89
2023/01/02 06:42:07;;;;;;;24.33;11.70;;;;;;;10.50;93.58;100573.73;3443913;84;99218;-90
2023/01/02 06:47:08;;;;;;;23.93;12.10;;;;;;;10.50;93.48;100570.98;3453641;84;26086;-88
2023/01/02 06:52:09;;;;;;;24.07;12.75;;;;;;;10.52;93.39;100570.05;3444563;84;99268;-89
2023/01/02 06:57:10;;;;;;;30.67;13.77;;;;;;;10.52;93.30;100568.67;3453346;84;33068;-90
2023/01/02 07:02:12;;;;;;;29.43;15.23;;;;;;;10.53;93.19;100579.88;3448503;84;99241;-88
2023/01/02 07:07:13;;;;;;;26.23;12.68;;;;;;;10.55;93.11;100584.42;3453946;84;25710;-88
2023/01/02 07:12:13;;;;;;;20.68;11.15;;;;;;;10.57;92.92;100577.98;3445567;84;99218;-89
2023/01/02 07:17:14;;;;;;;24.37;12.37;;;;;;;10.58;92.84;100580.34;3456698;84;33492;-88
2023/01/02 07:22:15;;;;;;;21.73;11.40;;;;;;;10.59;92.76;100575.64;3446677;84;99237;-88
2023/01/02 07:27:16;;;;;;;24.30;11.03;;;;;;;10.60;92.58;100564.27;3465186;82;33090;-89
2023/01/02 07:32:17;;;;;;;22.40;10.17;;;;;;;10.68;92.27;100570.05;3453793;84;99289;-90
2023/01/02 07:37:17;;;;;;;22.33;9.23;;;;;;;10.71;92.08;100558.31;3457848;84;33841;-89
2023/01/02 07:42:18;;;;;;;19.70;10.18;;;;;;;10.76;91.72;100557.98;3449713;84;99019;-91
2023/01/02 07:47:19;;;;;;;18.85;9.48;;;;;;;10.84;91.36;100556.88;3455254;84;33531;-89
2023/01/02 07:52:20;;;;;;;17.70;8.37;;;;;;;10.85;90.62;100524.05;3447438;84;99062;-89
2023/01/02 07:57:21;;;;;;;17.17;8.07;;;;;;;10.85;90.62;100524.05;3465386;82;31415;-90
2023/01/02 08:02:22;;;;;;;18.43;7.77;;;;;;;11.07;90.10;100545.14;3463360;84;99093;-90
2023/01/02 08:07:22;;;;;;;18.47;8.50;;;;;;;11.20;89.59;100553.36;3470410;82;31565;-90
2023/01/02 08:12:23;;;;;;;15.87;7.07;;;;;;;11.33;88.96;100567.67;3467585;84;98658;-89
2023/01/02 08:17:24;;;;;;;19.97;7.83;;;;;;;11.47;88.47;100571.35;3379588;85;32017;-87
2023/01/02 08:22:24;;;;;;;15.55;7.10;;;;;;;11.65;87.73;100568.77;3473324;84;98874;-88
2023/01/02 08:27:25;;;;;;;15.83;7.93;;;;;;;11.79;87.33;100566.95;3471598;83;25806;-90
2023/01/02 08:32:26;;;;;;;14.57;7.60;;;;;;;11.88;87.51;100554.22;3464182;84;99047;-90
2023/01/02 08:37:27;;;;;;;18.87;8.40;;;;;;;11.89;88.12;100588.89;3476640;84;25652;-90
2023/01/02 08:42:28;;;;;;;14.15;7.33;;;;;;;11.87;88.24;100576.85;3467839;83;98891;-90
2023/01/02 08:47:29;;;;;;;15.90;9.00;;;;;;;11.86;88.33;100584.12;3471690;84;34631;-89
2023/01/02 08:52:30;;;;;;;17.47;7.70;;;;;;;11.83;88.45;100591.80;3464435;84;98644;-90
2023/01/02 08:57:31;;;;;;;18.30;9.63;;;;;;;11.79;88.03;100580.74;3473999;83;35179;-89
2023/01/02 09:02:32;;;;;;;19.87;9.03;;;;;;;11.80;87.74;100585.08;3468302;82;99135;-93
2023/01/02 09:07:32;;;;;;;15.08;6.65;;;;;;;11.85;87.37;100568.76;3477959;83;34647;-91
2023/01/02 09:12:34;;;;;;;18.53;8.43;;;;;;;11.88;86.92;100566.02;3477726;83;99181;-91
2023/01/02 09:17:35;;;;;;;16.32;8.03;;;;;;;11.94;86.90;100563.72;3477206;83;34639;-90
2023/01/02 09:22:36;;;;;;;17.57;8.07;;;;;;;11.98;86.51;100568.08;3470193;83;99166;-90
2023/01/02 09:27:37;;;;;;;15.53;7.57;;;;;;;12.03;86.21;100572.44;3475329;83;25632;-87
2023/01/02 09:32:38;;;;;;;14.00;7.10;;;;;;;12.06;85.85;100580.77;3458841;83;99285;-91
2023/01/02 09:37:38;;;;;;;16.47;7.87;;;;;;;12.12;85.83;100593.59;3468926;83;33364;-90
2023/01/02 09:42:41;;;;;;;14.30;6.90;;;;;;;12.17;85.26;100599.56;3462259;83;99166;-91
2023/01/02 09:47:45;;;;;;;15.93;7.27;;;;;;;12.24;84.99;100596.05;3467909;83;25718;-92
2023/01/02 09:52:58;;;;;;;15.80;6.70;;;;;;;12.33;84.51;100584.09;3459672;83;98940;-93
2023/01/02 09:58:13;;;;;;;17.50;6.47;;;;;;;12.40;84.25;100587.69;3471260;83;35211;-94
2023/01/02 10:03:25;;;;;;;12.88;6.67;;;;;;;12.45;83.76;100563.06;3462695;83;99046;-89
2023/01/02 10:08:40;;;;;;;12.47;6.12;;;;;;;12.52;83.32;100561.71;3441664;81;34706;-93
2023/01/02 10:14:02;;;;;;;11.38;6.15;;;;;;;12.56;83.19;100563.91;3471604;83;98724;-92
2023/01/02 10:19:08;;;;;;;14.13;6.45;;;;;;;12.59;82.58;100561.16;3470953;83;25587;-91
2023/01/02 10:24:14;;;;;;;16.52;6.53;;;;;;;12.63;82.36;100550.13;3465556;83;98747;-89
2023/01/02 10:29:19;;;;;;;;;;;;;;;12.63;82.27;100542.65;3471799;83;25927;-90
2023/01/02 10:34:22;;;;;;;14.60;6.73;;;;;;;12.66;82.19;100535.56;3466727;83;85016;-91
2023/01/02 10:39:30;;;;;;;14.47;6.50;;;;;;;12.68;82.23;100535.95;3468946;83;34780;-91
2023/01/02 10:44:34;;;;;;;29.23;11.48;;;;;;;12.49;82.41;100504.53;3458144;83;99037;-91
2023/01/02 10:49:36;;;;;;;14.25;7.10;;;;;;;12.72;82.99;100541.72;3467208;83;35268;-91
2023/01/02 10:54:54;;;;;;;16.15;8.05;;;;;;;12.76;82.88;100540.34;3467882;83;99123;-93
2023/01/02 10:59:59;;;;;;;14.15;7.40;;;;;;;12.81;82.48;100531.69;3479130;83;34676;-90
2023/01/02 11:05:02;;;;;;;16.67;7.45;;;;;;;12.84;82.49;100517.08;3452564;83;98518;-90
2023/01/02 11:10:07;;;;;;;16.55;7.85;;;;;;;12.91;82.15;100509.61;3475866;83;30944;-87
2023/01/02 11:15:13;;;;;;;18.50;8.48;;;;;;;12.91;82.15;100509.61;3470776;83;98947;-89
2023/01/02 11:20:30;;;;;;;15.45;8.13;;;;;;;12.97;81.61;100512.83;3477426;83;25667;-89
2023/01/02 11:25:42;;;;;;;16.15;7.37;;;;;;;13.01;81.76;100509.46;3469222;83;98806;-89
2023/01/02 11:30:48;;;;;;;16.62;7.05;;;;;;;13.08;81.50;100506.13;3477386;83;34766;-90
2023/01/02 11:35:55;;;;;;;17.40;8.18;;;;;;;13.12;81.41;100499.22;3472393;83;98511;-91
2023/01/02 11:41:00;;;;;;;21.57;8.53;;;;;;;13.15;81.33;100501.22;3473527;83;35211;-92
2023/01/02 11:46:05;;;;;;;17.82;7.20;;;;;;;13.18;81.40;100505.94;3477756;83;35103;-91
2023/01/02 11:51:13;;;;;;;13.68;6.85;;;;;;;13.19;81.15;100487.59;3464319;83;99155;-93
2023/01/02 11:56:35;;;;;;;16.20;7.55;;;;;;;13.22;81.24;100483.25;3475526;83;34641;-91
2023/01/02 12:02:02;;;;;;;17.15;7.62;;;;;;;13.20;80.82;100494.70;3443591;81;99073;-90
2023/01/02 12:07:27;;;;;;;18.67;8.20;;;;;;;13.21;81.07;100488.01;3444699;84;34719;-91
2023/01/02 12:13:16;;;;;;;15.03;8.08;;;;;;;13.21;80.95;100492.16;3377609;84;98829;-91
2023/01/02 12:18:33;;;;;;;18.37;9.63;;;;;;;13.22;80.82;100497.08;3386914;86;34764;-93
2023/01/02 12:23:54;;;;;;;16.48;8.55;;;;;;;13.22;80.84;100479.91;3333478;87;99116;-90
2023/01/02 12:29:06;;;;;;;17.30;7.75;;;;;;;13.23;80.60;100484.25;3378799;86;34636;-90
2023/01/02 12:34:16;;;;;;;18.85;7.55;;;;;;;13.24;80.54;100487.20;3436499;84;99062;-90
2023/01/02 12:39:51;;;;;;;20.15;8.58;;;;;;;13.26;80.55;100477.95;3446300;84;25914;-92
2023/01/02 12:44:57;;;;;;;18.32;8.90;;;;;;;13.28;80.65;100478.91;3444977;84;98821;-93
2023/01/02 12:50:12;;;;;;;16.60;7.55;;;;;;;13.17;80.29;100442.19;3440883;84;32811;-90
2023/01/02 12:55:30;;;;;;;16.50;8.50;;;;;;;13.17;80.29;100442.19;3438007;82;98429;-90
2023/01/02 13:00:59;;;;;;;19.42;8.20;;;;;;;13.31;80.15;100461.56;3378392;86;34692;-90
2023/01/02 13:06:20;;;;;;;17.10;7.60;;;;;;;13.29;80.11;100470.23;3394592;85;98584;-89
2023/01/02 13:11:30;;;;;;;22.25;8.03;;;;;;;13.30;79.86;100471.04;3467026;84;99233;-93
2023/01/02 13:16:31;;;;;;;20.37;9.63;;;;;;;13.28;80.02;100452.66;3460267;84;35492;-90
2023/01/02 13:21:55;;;;;;;19.97;9.37;;;;;;;13.28;80.02;100452.66;3466431;84;98884;-91
2023/01/02 13:26:57;;;;;;;21.45;9.18;;;;;;;13.27;79.82;100462.14;3472100;84;34655;-90
2023/01/02 13:31:58;;;;;;;22.07;9.18;;;;;;;13.26;79.94;100457.80;3363713;86;98735;-89
2023/01/02 13:37:12;;;;;;;22.10;8.67;;;;;;;13.25;79.81;100463.13;3387100;86;30845;-92
2023/01/02 13:47:58;;;;;;;23.27;10.43;;;;;;;13.26;79.78;100475.77;3352888;85;25599;-90
2023/01/02 13:53:14;;;;;;;19.00;8.58;;;;;;;13.27;79.48;100474.58;3470154;83;99294;-90
2023/01/02 13:58:29;;;;;;;19.98;9.48;;;;;;;13.18;79.51;100448.71;3475691;83;34597;-89
2023/01/02 14:03:33;;;;;;;15.65;8.18;;;;;;;13.28;79.51;100463.13;3462388;83;99106;-91
2023/01/02 14:08:38;;;;;;;19.70;8.08;;;;;;;13.29;79.43;100454.23;3490424;82;33939;-90
2023/01/02 14:13:44;;;;;;;15.28;7.97;;;;;;;13.29;79.40;100464.70;3479934;83;99065;-90
2023/01/02 14:18:45;;;;;;;17.50;9.53;;;;;;;13.29;79.15;100474.38;3492512;83;25669;-90
2023/01/02 14:23:48;;;;;;;15.83;8.90;;;;;;;13.29;79.04;100480.48;3484861;83;99113;-91
2023/01/02 14:28:51;;;;;;;16.30;8.05;;;;;;;13.26;78.91;100494.53;3468181;83;34712;-91
2023/01/02 14:33:54;;;;;;;18.00;8.55;;;;;;;13.08;78.95;100477.11;3485633;83;98611;-88
2023/01/02 14:38:56;;;;;;;19.32;9.13;;;;;;;13.08;78.95;100477.11;3487303;82;34708;-88
2023/01/02 14:43:57;;;;;;;27.67;12.28;;;;;;;13.16;79.06;100514.65;3488776;83;97828;-89
2023/01/02 14:49:04;;;;;;;20.52;10.18;;;;;;;13.14;79.20;100519.75;3482076;83;35219;-88
2023/01/02 14:54:28;;;;;;;28.33;11.70;;;;;;;13.10;79.26;100538.33;3479278;83;99258;-90
2023/01/02 14:59:40;;;;;;;26.62;10.38;;;;;;;13.07;79.48;100525.86;3486238;83;34719;-89
2023/01/02 15:04:53;;;;;;;20.05;9.55;;;;;;;13.04;79.64;100523.28;3479167;83;98801;-90
2023/01/02 15:10:12;;;;;;;17.40;8.38;;;;;;;13.03;79.58;100525.84;3484221;83;35219;-92
2023/01/02 15:15:16;;;;;;;20.32;8.70;;;;;;;13.04;79.62;100528.03;3481649;83;99120;-88
2023/01/02 15:20:23;;;;;;;17.90;8.13;;;;;;;13.01;79.61;100534.33;3484109;82;34707;-90
2023/01/02 15:25:38;;;;;;;18.95;8.45;;;;;;;13.00;79.65;100532.75;3484174;83;98742;-88
2023/01/02 15:30:39;;;;;;;17.60;8.78;;;;;;;12.98;79.48;100540.65;3489088;83;25746;-90
2023/01/02 15:35:44;;;;;;;17.70;8.37;;;;;;;12.96;79.54;100536.09;3481329;82;99068;-92
2023/01/02 15:40:45;;;;;;;22.05;10.88;;;;;;;12.94;79.66;100543.95;3492193;83;34733;-90
2023/01/02 15:45:50;;;;;;;22.67;10.77;;;;;;;12.91;79.46;100545.52;3484457;82;99138;-90
2023/01/02 15:50:54;;;;;;;20.40;9.83;;;;;;;12.90;79.63;100543.14;3479498;83;34594;-91
2023/01/02 15:55:57;;;;;;;19.17;9.33;;;;;;;12.88;79.61;100540.80;3485066;83;98673;-92
2023/01/02 16:01:18;;;;;;;16.87;8.73;;;;;;;12.87;79.50;100534.27;3477305;83;25664;-93
2023/01/02 16:06:34;;;;;;;19.60;9.95;;;;;;;12.88;79.38;100535.84;3471734;84;34655;-93
2023/01/02 16:11:52;;;;;;;21.87;10.37;;;;;;;12.89;79.34;100537.42;3457478;84;99071;-93
2023/01/02 16:17:08;;;;;;;21.40;9.30;;;;;;;12.88;79.32;100532.50;3458482;84;32873;-92
2023/01/02 16:22:30;;;;;;;18.73;9.83;;;;;;;12.86;79.22;100534.84;3454552;84;99163;-91
2023/01/02 16:27:39;;;;;;;20.52;9.25;;;;;;;12.87;79.04;100521.84;3459222;84;34755;-94
2023/01/02 16:32:47;;;;;;;22.55;11.08;;;;;;;12.86;78.93;100527.94;3467899;79;98283;-89
2023/01/02 16:38:24;;;;;;;16.48;8.85;;;;;;;12.85;78.82;100529.13;3467630;84;34667;-89
2023/01/02 16:43:26;;;;;;;19.00;9.33;;;;;;;12.83;78.92;100538.98;3465250;83;99036;-89
2023/01/02 16:48:28;;;;;;;18.12;8.98;;;;;;;12.82;78.75;100538.78;3471464;84;34733;-93
2023/01/02 16:53:32;;;;;;;22.20;10.30;;;;;;;12.81;78.45;100533.06;3466377;84;99158;-91
2023/01/02 16:58:35;;;;;;;16.23;8.38;;;;;;;12.81;78.33;100528.92;3478683;84;35171;-90
2023/01/02 17:03:36;;;;;;;18.95;9.30;;;;;;;12.79;78.16;100538.97;3422624;84;98750;-90
2023/01/02 17:08:37;;;;;;;21.03;10.13;;;;;;;12.79;78.21;100532.64;3451787;84;29112;-90
2023/01/02 17:13:38;;;;;;;22.50;10.07;;;;;;;12.78;78.25;100543.50;3449249;84;99275;-89
2023/01/02 17:18:39;;;;;;;19.23;9.87;;;;;;;12.75;78.09;100551.20;3455356;84;26037;-88
2023/01/02 17:23:40;;;;;;;18.90;9.13;;;;;;;12.73;78.22;100550.20;3447907;84;98973;-90
2023/01/02 17:28:41;;;;;;;20.77;9.70;;;;;;;12.71;78.25;100556.67;3459640;82;32809;-91
2023/01/02 17:33:42;;;;;;;22.47;10.87;;;;;;;12.67;78.31;100559.23;3447885;84;99098;-89
2023/01/02 17:38:43;;;;;;;18.60;10.37;;;;;;;12.66;78.55;100561.22;3455696;84;32291;-91
2023/01/02 17:43:43;;;;;;;22.90;10.20;;;;;;;12.62;78.49;100561.78;3447067;84;99122;-91
2023/01/02 17:48:44;;;;;;;19.57;10.23;;;;;;;12.61;78.53;100560.78;3453462;84;32248;-92
2023/01/02 17:53:46;;;;;;;25.20;11.65;;;;;;;12.57;78.65;100558.00;3449810;84;99250;-91
2023/01/02 17:58:47;;;;;;;23.98;10.63;;;;;;;12.55;78.66;100559.57;3451791;84;32906;-93
2023/01/02 18:03:48;;;;;;;17.47;9.90;;;;;;;12.51;78.70;100562.32;3434253;83;99458;-91
2023/01/02 18:08:53;;;;;;;19.10;9.90;;;;;;;12.51;78.54;100548.52;3436293;84;26008;-92
2023/01/02 18:13:55;;;;;;;19.30;10.08;;;;;;;12.51;78.63;100552.66;3464530;84;98992;-91
2023/01/02 18:18:56;;;;;;;20.90;10.55;;;;;;;12.50;78.31;100557.17;3479878;80;32357;-94
2023/01/02 18:24:01;;;;;;;24.10;10.30;;;;;;;12.49;78.57;100561.89;3472716;84;99059;-93
2023/01/02 18:29:07;;;;;;;18.50;9.13;;;;;;;12.48;78.63;100560.92;3472427;84;32327;-93
2023/01/02 18:34:23;;;;;;;21.47;11.43;;;;;;;12.48;78.52;100559.55;3470018;84;99143;-93
2023/01/02 18:39:34;;;;;;;26.05;12.68;;;;;;;12.47;78.55;100562.08;3476269;84;32349;-90
2023/01/02 18:44:31;;;;;;;;;;;;;;;12.47;78.48;100567.02;3470869;83;98885;-93
2023/01/02 18:49:41;;;;;;;21.70;10.17;;;;;;;12.48;78.15;100569.98;3471877;84;28517;-93
2023/01/02 18:54:50;;;;;;;24.60;11.70;;;;;;;12.47;78.49;100580.83;3460777;84;99137;-91
2023/01/02 18:59:51;;;;;;;23.27;12.68;;;;;;;12.50;78.50;100582.83;3477741;82;32281;-93
2023/01/02 19:04:55;;;;;;;18.67;10.58;;;;;;;12.51;78.40;100585.78;3484155;83;98751;-92
2023/01/02 19:10:18;;;;;;;21.02;9.80;;;;;;;12.50;78.46;100590.30;3494297;83;32285;-93
2023/01/02 19:15:36;;;;;;;21.90;9.35;;;;;;;12.48;78.46;100600.34;3478807;82;98691;-93
2023/01/02 19:20:37;;;;;;;17.95;9.15;;;;;;;12.46;78.63;100603.28;3496960;82;32747;-93
2023/01/02 19:25:38;;;;;;;19.10;9.53;;;;;;;12.43;78.76;100614.50;3489192;83;98770;-92
2023/01/02 19:30:44;;;;;;;20.37;8.93;;;;;;;12.41;78.83;100618.25;3495202;83;25729;-92
2023/01/02 19:36:01;;;;;;;19.05;9.00;;;;;;;12.39;78.93;100626.13;3489684;83;99049;-91
2023/01/02 19:41:02;;;;;;;16.02;9.15;;;;;;;12.38;78.99;100633.41;3486697;83;101432;-90
2023/01/02 19:46:03;;;;;;;18.87;9.03;;;;;;;12.35;79.14;100632.20;3493497;83;27443;-90
2023/01/02 19:51:04;;;;;;;18.35;7.92;;;;;;;12.35;79.19;100634.97;3483282;83;102575;-93
2023/01/02 19:56:06;;;;;;;17.00;8.03;;;;;;;12.36;79.28;100644.02;3494520;83;26590;-92
2023/01/02 20:01:09;;;;;;;20.67;8.43;;;;;;;12.36;79.21;100644.02;3482288;83;99381;-90
2023/01/02 20:06:10;;;;;;;18.92;8.95;;;;;;;12.36;79.02;100637.93;3486026;83;32870;-93
2023/01/02 20:12:28;;;;;;;18.83;9.70;;;;;;;12.37;79.09;100651.16;3481781;78;98785;-93
2023/01/02 20:16:13;;;;;;;22.10;9.03;;;;;;;12.36;79.28;100662.77;3486054;83;32325;-90
2023/01/02 20:21:14;;;;;;;19.07;8.83;;;;;;;12.35;79.23;100654.86;3488190;83;98733;-91
2023/01/02 20:26:15;;;;;;;16.70;8.03;;;;;;;12.29;79.27;100658.58;3494738;83;25608;-89
2023/01/02 20:31:16;;;;;;;17.55;8.60;;;;;;;12.27;79.36;100665.66;3487476;83;98992;-89
2023/01/02 20:36:17;;;;;;;18.07;8.77;;;;;;;12.26;79.43;100671.75;3495172;83;25927;-88
2023/01/02 20:41:18;;;;;;;19.17;9.77;;;;;;;12.23;79.49;100676.67;3486632;83;98776;-89
2023/01/02 20:46:18;;;;;;;19.07;8.37;;;;;;;12.21;79.56;100686.51;3492236;83;25997;-88
2023/01/02 20:51:20;;;;;;;17.77;7.87;;;;;;;12.19;79.78;100692.40;3487475;83;99008;-87
2023/01/02 20:56:27;;;;;;;15.23;8.10;;;;;;;12.17;79.83;100700.27;3474255;83;26029;-87
2023/01/02 21:01:30;;;;;;;17.10;7.90;;;;;;;12.13;80.01;100705.53;3479325;83;99000;-88
2023/01/02 21:06:42;;;;;;;14.83;7.80;;;;;;;12.09;80.21;100719.88;3460027;84;32248;-88
2023/01/02 21:11:55;;;;;;;14.18;7.80;;;;;;;12.06;80.28;100720.65;3415402;84;98755;-88
2023/01/02 21:17:54;;;;;;;;;;;;;;;;;;;;;
2023/01/02 21:28:22;;;;;;;15.03;7.22;;;;;;;12.01;80.90;100743.87;3249259;88;32238;-89
2023/01/02 21:33:26;;;;;;;11.28;5.95;;;;;;;11.99;81.21;100748.17;3230647;88;99159;-87
2023/01/02 21:38:28;;;;;;;12.63;5.47;;;;;;;11.97;81.37;100746.36;3469168;84;32347;-85
2023/01/02 21:43:29;;;;;;;10.85;4.58;;;;;;;11.95;81.71;100755.01;3464798;84;99241;-87
2023/01/02 21:48:29;;;;;;;7.10;2.17;;;;;;;11.95;81.98;100761.12;3465679;84;26519;-92
2023/01/02 21:53:30;;;;;;;7.43;1.90;;;;;;;11.93;82.11;100764.26;3463166;84;98785;-92
2023/01/02 21:58:31;;;;;;;2.63;1.50;;;;;;;11.93;82.18;100771.75;3466914;83;26197;-93
2023/01/02 22:03:32;;;;;;;2.77;1.20;;;;;;;11.92;82.36;100780.61;3467205;84;98817;-92
2023/01/02 22:08:32;;;;;;;4.00;1.53;;;;;;;11.92;82.30;100794.97;3473796;84;25690;-94
2023/01/02 22:13:33;;;;;;;3.80;1.23;;;;;;;11.91;82.13;100807.98;3463508;84;98641;-91
2023/01/02 22:18:34;;;;;;;3.12;1.50;;;;;;;11.88;82.50;100813.46;3464323;84;26126;-90
2023/01/02 22:23:35;;;;;;;2.05;0.90;;;;;;;11.84;82.28;100814.00;3462584;84;98655;-91
2023/01/02 22:28:36;;;;;;;3.10;1.10;;;;;;;11.78;82.37;100807.23;3462327;84;32995;-94
2023/01/02 22:33:37;;;;;;;1.87;0.90;;;;;;;11.73;82.33;100815.83;3460872;83;98919;-91
2023/01/02 22:38:38;;;;;;;3.30;1.10;;;;;;;11.67;82.53;100820.87;3470960;84;33051;-91
2023/01/02 22:43:42;;;;;;;3.47;1.30;;;;;;;11.60;82.44;100805.63;3465562;84;99012;-91
2023/01/02 22:48:43;;;;;;;3.00;1.27;;;;;;;11.56;82.57;100826.02;3466382;83;25946;-92
2023/01/02 22:53:44;;;;;;;3.35;1.37;;;;;;;11.52;82.53;100843.08;3448990;79;97889;-93
2023/01/02 22:58:46;;;;;;;3.07;1.27;;;;;;;11.47;82.52;100844.21;3447780;84;33030;-91
2023/01/02 23:03:48;;;;;;;3.17;1.02;;;;;;;11.43;82.68;100862.66;3455555;84;98893;-93
2023/01/02 23:08:50;;;;;;;2.40;1.10;;;;;;;11.37;83.55;100862.77;3455976;84;25942;-95
2023/01/02 23:13:51;;;;;;;2.17;1.10;;;;;;;11.29;83.81;100869.32;3448224;84;98858;-94
2023/01/02 23:24:13;;;;;;;1.98;1.00;;;;;;;11.14;84.83;100899.78;3438467;84;98866;-92
2023/01/02 23:29:14;;;;;;;2.37;1.10;;;;;;;11.04;85.32;100903.16;3454730;84;26540;-93
2023/01/02 23:34:19;;;;;;;2.35;1.20;;;;;;;10.94;85.75;100905.95;3446919;84;98561;-93
2023/01/02 23:39:24;;;;;;;2.60;1.10;;;;;;;10.87;86.39;100910.55;3453555;84;25938;-91
2023/01/02 23:44:26;;;;;;;2.53;1.20;;;;;;;10.80;87.15;100918.69;3463154;82;98287;-93
2023/01/02 23:49:26;;;;;;;1.57;1.07;;;;;;;10.72;87.62;100932.09;3450046;81;25655;-91